Time;durP1;ratioP1;P1;durP2;ratioP2;P2;SDS_P1;SDS_P2;PMS_P1;PMS_P2;Temp;Humidity;BMP_temperature;BMP_pressure;BME280_temperature;BME280_humidity;BME280_pressure;Samples;Min_cycle;Max_cycle;Signal;HPM_P1;HPM_P2
2023/03/20 00:00:55;;;;;;;57.58;31.02;;;10.10;99.90;;;;;;4995644;28;20186;-65
2023/03/20 00:03:21;;;;;;;63.40;32.53;;;10.10;99.90;;;;;;4993946;28;20215;-65
2023/03/20 00:05:47;;;;;;;58.13;30.90;;;10.00;99.90;;;;;;4995091;28;20176;-65
2023/03/20 00:08:12;;;;;;;60.60;31.13;;;10.00;99.90;;;;;;4993946;28;20173;-65
2023/03/20 00:10:42;;;;;;;54.63;30.27;;;10.00;99.90;;;;;;4995260;28;20188;-65
2023/03/20 00:13:14;;;;;;;57.07;31.13;;;10.00;99.90;;;;;;4993690;28;20263;-65
2023/03/20 00:15:42;;;;;;;54.80;29.27;;;10.00;99.90;;;;;;4993726;28;20169;-65
2023/03/20 00:18:20;;;;;;;59.30;31.47;;;10.00;99.90;;;;;;4993472;28;20258;-65
2023/03/20 00:20:46;;;;;;;60.67;30.97;;;9.90;99.90;;;;;;4993567;28;20199;-65
2023/03/20 00:23:13;;;;;;;62.13;33.07;;;9.80;99.90;;;;;;4993624;28;20276;-65
2023/03/20 00:25:40;;;;;;;60.33;32.63;;;9.70;99.90;;;;;;4993515;28;20211;-66
2023/03/20 00:28:32;;;;;;;60.43;32.77;;;9.70;99.90;;;;;;4993272;28;20176;-65
2023/03/20 00:30:58;;;;;;;61.03;32.37;;;9.60;99.90;;;;;;4992074;28;20189;-65
2023/03/20 00:33:25;;;;;;;60.17;32.30;;;9.60;99.90;;;;;;4993384;28;20173;-66
2023/03/20 00:35:51;;;;;;;71.40;35.53;;;9.60;99.90;;;;;;4996787;28;20203;-66
2023/03/20 00:38:17;;;;;;;74.13;37.07;;;9.60;99.90;;;;;;4997031;28;20516;-65
2023/03/20 00:40:44;;;;;;;65.97;34.63;;;9.50;99.90;;;;;;4995478;28;20203;-65
2023/03/20 00:43:12;;;;;;;69.90;36.63;;;9.50;99.90;;;;;;4994493;28;20169;-65
2023/03/20 00:45:38;;;;;;;66.70;34.57;;;9.40;99.90;;;;;;4994274;28;20196;-65
2023/03/20 00:48:04;;;;;;;60.37;32.80;;;9.30;99.90;;;;;;4994397;28;20176;-65
2023/03/20 00:50:30;;;;;;;67.83;33.70;;;9.30;99.90;;;;;;4994453;28;20238;-65
2023/03/20 00:52:57;;;;;;;60.67;32.03;;;9.30;99.90;;;;;;4993228;28;20661;-66
2023/03/20 00:55:26;;;;;;;58.93;32.63;;;9.30;99.90;;;;;;4994381;28;20180;-66
2023/03/20 00:57:56;;;;;;;62.73;32.77;;;9.30;99.90;;;;;;4994462;28;20659;-66
2023/03/20 01:00:33;;;;;;;72.93;38.00;;;9.30;99.90;;;;;;4993930;28;20208;-68
2023/03/20 01:03:00;;;;;;;66.60;35.00;;;9.40;99.90;;;;;;4994936;28;20152;-68
2023/03/20 01:05:27;;;;;;;72.00;36.87;;;9.30;99.90;;;;;;4993803;28;20184;-67
2023/03/20 01:07:54;;;;;;;78.43;39.40;;;9.30;99.90;;;;;;4993460;28;20192;-70
2023/03/20 01:10:20;;;;;;;75.23;37.67;;;9.20;99.90;;;;;;4994400;28;20173;-71
2023/03/20 01:12:47;;;;;;;70.63;39.17;;;9.20;99.90;;;;;;4997378;28;20187;-68
2023/03/20 01:15:21;;;;;;;74.57;38.77;;;9.10;99.90;;;;;;4995694;28;20181;-65
2023/03/20 01:17:48;;;;;;;73.87;40.60;;;9.10;99.90;;;;;;4992941;28;20314;-68
2023/03/20 01:20:22;;;;;;;70.67;39.10;;;9.10;99.90;;;;;;4993411;28;20204;-66
2023/03/20 01:22:48;;;;;;;69.97;37.90;;;9.00;99.90;;;;;;4992753;28;20193;-66
2023/03/20 01:25:15;;;;;;;67.03;38.20;;;8.90;99.90;;;;;;4994691;28;20195;-66
2023/03/20 01:27:46;;;;;;;61.40;33.43;;;8.90;99.90;;;;;;4993814;28;20196;-66
2023/03/20 01:30:26;;;;;;;61.73;35.60;;;8.90;99.90;;;;;;4994293;28;20248;-66
2023/03/20 01:32:53;;;;;;;67.03;35.83;;;8.80;99.90;;;;;;4992675;28;20179;-66
2023/03/20 01:35:24;;;;;;;62.83;34.00;;;8.80;99.90;;;;;;4992629;28;20650;-66
2023/03/20 01:37:51;;;;;;;59.73;33.50;;;8.80;99.90;;;;;;4995036;28;20200;-66
2023/03/20 01:40:56;;;;;;;56.70;31.63;;;8.70;99.90;;;;;;4995137;28;20287;-66
2023/03/20 01:43:24;;;;;;;58.67;32.43;;;8.60;99.90;;;;;;4917876;29;20233;-66
2023/03/20 01:46:09;;;;;;;56.33;32.60;;;8.60;99.90;;;;;;4984363;28;20246;-66
2023/03/20 01:48:56;;;;;;;64.83;33.33;;;8.60;99.90;;;;;;4994584;28;20179;-66
2023/03/20 01:51:25;;;;;;;67.00;33.87;;;8.60;99.90;;;;;;4994187;28;20195;-67
2023/03/20 01:54:13;;;;;;;61.33;34.50;;;8.60;99.90;;;;;;4993897;28;20219;-66
2023/03/20 01:56:46;;;;;;;66.27;33.67;;;8.50;99.90;;;;;;4993478;28;20628;-67
2023/03/20 01:59:26;;;;;;;68.93;33.33;;;8.60;99.90;;;;;;4992601;28;20208;-67
2023/03/20 02:01:52;;;;;;;68.50;33.13;;;8.60;99.90;;;;;;4992704;28;20653;-67
2023/03/20 02:04:23;;;;;;;56.50;29.87;;;8.60;99.90;;;;;;4994193;28;20177;-67
2023/03/20 02:06:49;;;;;;;55.20;30.33;;;8.60;99.90;;;;;;4994850;28;20611;-64
2023/03/20 02:09:15;;;;;;;49.57;28.40;;;8.60;99.90;;;;;;4992462;28;20212;-64
2023/03/20 02:11:44;;;;;;;58.03;29.27;;;8.60;99.90;;;;;;4993262;28;20195;-69
2023/03/20 02:14:11;;;;;;;44.43;25.83;;;8.60;99.90;;;;;;4992287;28;20195;-69
2023/03/20 02:16:37;;;;;;;49.67;26.77;;;8.60;99.90;;;;;;4993880;28;20196;-69
2023/03/20 02:19:09;;;;;;;47.77;26.80;;;8.50;99.90;;;;;;4995808;28;20235;-69
2023/03/20 02:22:02;;;;;;;44.27;27.50;;;8.50;99.90;;;;;;5000313;28;20200;-68
2023/03/20 02:24:52;;;;;;;42.73;24.63;;;8.50;99.90;;;;;;5020571;28;20214;-64
2023/03/20 02:27:43;;;;;;;40.00;24.87;;;8.50;99.90;;;;;;5018975;28;20672;-66
2023/03/20 02:30:24;;;;;;;43.00;24.90;;;8.40;99.90;;;;;;5017892;28;20164;-66
2023/03/20 02:32:59;;;;;;;49.80;27.10;;;8.50;99.90;;;;;;5016965;28;20164;-66
2023/03/20 02:35:52;;;;;;;48.73;26.67;;;8.40;99.90;;;;;;5016890;28;20184;-66
2023/03/20 02:38:41;;;;;;;52.60;28.00;;;8.40;99.90;;;;;;5017242;28;20167;-66
2023/03/20 02:41:48;;;;;;;51.40;27.97;;;8.40;99.90;;;;;;5017961;28;20234;-66
2023/03/20 02:45:01;;;;;;;46.50;26.27;;;8.40;99.90;;;;;;5003547;28;20241;-66
2023/03/20 02:47:36;;;;;;;49.30;25.90;;;8.30;99.90;;;;;;5008088;28;20212;-66
2023/03/20 02:50:39;;;;;;;51.23;24.93;;;8.30;99.90;;;;;;5015236;28;20183;-66
2023/03/20 02:53:27;;;;;;;48.03;24.57;;;8.30;99.90;;;;;;5003930;28;20197;-66
2023/03/20 02:56:25;;;;;;;50.00;25.83;;;8.30;99.90;;;;;;4997597;28;20582;-66
2023/03/20 02:59:13;;;;;;;49.03;24.47;;;8.20;99.90;;;;;;4997404;28;20204;-66
2023/03/20 03:01:51;;;;;;;50.03;24.07;;;8.20;99.90;;;;;;4999726;28;20663;-67
2023/03/20 03:04:22;;;;;;;52.40;24.73;;;8.20;99.90;;;;;;4996845;28;20166;-65
2023/03/20 03:06:54;;;;;;;54.13;25.27;;;8.10;99.90;;;;;;4997007;28;20204;-66
2023/03/20 03:09:30;;;;;;;55.17;24.43;;;8.10;99.90;;;;;;4996147;28;20169;-66
2023/03/20 03:12:02;;;;;;;49.67;23.53;;;8.10;99.90;;;;;;4995166;28;20557;-66
2023/03/20 03:14:45;;;;;;;50.80;24.97;;;8.10;99.90;;;;;;4995001;28;20177;-66
2023/03/20 03:17:13;;;;;;;45.57;21.67;;;8.10;99.90;;;;;;4995939;28;20208;-66
2023/03/20 03:19:45;;;;;;;43.10;21.30;;;8.10;99.90;;;;;;4995977;28;20299;-66
2023/03/20 03:22:11;;;;;;;48.80;21.47;;;8.10;99.90;;;;;;4996471;28;20283;-66
2023/03/20 03:24:49;;;;;;;44.17;19.13;;;8.10;99.90;;;;;;4994849;28;20184;-66
2023/03/20 03:27:26;;;;;;;36.63;19.17;;;8.10;99.90;;;;;;4994528;28;20200;-66
2023/03/20 03:30:00;;;;;;;37.43;18.20;;;8.10;99.90;;;;;;4994418;28;20626;-66
2023/03/20 03:32:33;;;;;;;31.40;17.73;;;8.10;99.90;;;;;;4995640;28;20197;-66
2023/03/20 03:35:00;;;;;;;34.67;18.50;;;8.10;99.90;;;;;;4996445;28;20549;-66
2023/03/20 03:37:38;;;;;;;29.00;16.33;;;8.10;99.90;;;;;;4996241;28;20208;-66
2023/03/20 03:40:12;;;;;;;31.60;17.57;;;8.00;99.90;;;;;;4996272;28;20196;-66
2023/03/20 03:43:06;;;;;;;31.13;18.80;;;8.10;99.90;;;;;;4994414;28;20179;-66
2023/03/20 03:45:40;;;;;;;29.43;17.33;;;8.00;99.90;;;;;;4995677;28;20188;-66
2023/03/20 03:48:16;;;;;;;29.73;18.00;;;8.00;99.90;;;;;;4995844;28;20160;-66
2023/03/20 03:50:50;;;;;;;29.33;17.03;;;8.00;99.90;;;;;;4995954;28;20156;-66
2023/03/20 03:53:47;;;;;;;31.90;17.10;;;8.00;99.90;;;;;;4995698;28;20239;-68
2023/03/20 03:56:15;;;;;;;29.20;16.20;;;7.90;99.90;;;;;;4995337;28;20206;-69
2023/03/20 03:58:44;;;;;;;27.00;16.50;;;8.00;99.90;;;;;;4995165;28;20294;-69
2023/03/20 04:01:13;;;;;;;23.67;15.47;;;7.90;99.90;;;;;;4994131;28;20541;-69
2023/03/20 04:03:43;;;;;;;25.47;14.97;;;7.90;99.90;;;;;;4993939;28;20173;-69
2023/03/20 04:06:14;;;;;;;26.03;15.83;;;7.90;99.90;;;;;;4995163;28;20253;-69
2023/03/20 04:08:41;;;;;;;25.60;16.07;;;7.90;99.90;;;;;;4995234;28;20248;-69
2023/03/20 04:11:18;;;;;;;24.37;15.43;;;7.80;99.90;;;;;;4995415;28;20176;-69
2023/03/20 04:13:46;;;;;;;28.70;15.63;;;7.80;99.90;;;;;;4993775;28;20176;-68
2023/03/20 04:16:15;;;;;;;27.13;15.40;;;7.80;99.90;;;;;;4995033;28;20299;-69
2023/03/20 04:18:42;;;;;;;30.90;16.67;;;7.80;99.90;;;;;;4994783;28;20747;-68
2023/03/20 04:21:09;;;;;;;23.47;14.60;;;7.70;99.90;;;;;;4994874;28;20176;-68
2023/03/20 04:23:35;;;;;;;23.30;15.03;;;7.80;99.90;;;;;;4995013;28;20184;-69
2023/03/20 04:26:01;;;;;;;24.03;15.47;;;7.80;99.90;;;;;;4994873;28;20189;-68
2023/03/20 04:28:27;;;;;;;25.23;14.83;;;7.70;99.90;;;;;;4994756;28;20165;-68
2023/03/20 04:30:58;;;;;;;24.43;15.03;;;7.70;99.90;;;;;;4995196;28;20521;-68
2023/03/20 04:33:25;;;;;;;22.53;14.67;;;7.70;99.90;;;;;;4994728;28;20188;-69
2023/03/20 04:35:51;;;;;;;25.53;14.80;;;7.60;99.90;;;;;;4993426;28;20176;-68
2023/03/20 04:38:18;;;;;;;23.03;14.90;;;7.60;99.90;;;;;;4994627;28;20227;-68
2023/03/20 04:40:45;;;;;;;24.13;14.87;;;7.60;99.90;;;;;;4993417;28;20549;-68
2023/03/20 04:43:12;;;;;;;23.70;13.70;;;7.60;99.90;;;;;;4993609;28;20180;-68
2023/03/20 04:45:37;;;;;;;25.17;14.30;;;7.60;99.90;;;;;;4994532;28;20204;-69
2023/03/20 04:48:04;;;;;;;20.70;13.40;;;7.60;99.90;;;;;;4994927;28;20164;-68
2023/03/20 04:50:30;;;;;;;23.77;12.57;;;7.50;99.90;;;;;;4994539;28;20560;-69
2023/03/20 04:52:57;;;;;;;25.87;14.63;;;7.50;99.90;;;;;;4994417;28;20270;-69
2023/03/20 04:55:23;;;;;;;23.90;13.13;;;7.50;99.90;;;;;;4993258;28;20176;-69
2023/03/20 04:57:49;;;;;;;23.73;14.17;;;7.60;99.90;;;;;;4994254;28;20242;-69
2023/03/20 05:00:16;;;;;;;24.47;14.73;;;7.50;99.90;;;;;;4994318;28;20239;-69
2023/03/20 05:02:42;;;;;;;21.10;13.43;;;7.50;99.90;;;;;;4994344;28;20180;-69
2023/03/20 05:05:08;;;;;;;23.70;13.63;;;7.60;99.90;;;;;;4994234;28;20227;-69
2023/03/20 05:07:34;;;;;;;22.63;13.67;;;7.60;99.90;;;;;;4994170;28;20192;-69
2023/03/20 05:10:00;;;;;;;25.27;15.27;;;7.60;99.90;;;;;;4992805;28;20184;-69
2023/03/20 05:12:26;;;;;;;26.23;15.23;;;7.50;99.90;;;;;;4993804;28;20661;-69
2023/03/20 05:14:53;;;;;;;23.87;15.07;;;7.50;99.90;;;;;;4993454;28;20183;-69
2023/03/20 05:17:20;;;;;;;26.80;15.97;;;7.50;99.90;;;;;;4993865;28;20681;-69
2023/03/20 05:19:46;;;;;;;25.20;15.43;;;7.50;99.90;;;;;;4992437;28;20208;-69
2023/03/20 05:22:12;;;;;;;26.20;15.47;;;7.40;99.90;;;;;;4994073;28;20300;-69
2023/03/20 05:24:38;;;;;;;26.67;15.60;;;7.40;99.90;;;;;;4992550;28;20191;-69
2023/03/20 05:27:04;;;;;;;30.10;17.07;;;7.40;99.90;;;;;;4993739;28;20196;-69
2023/03/20 05:29:30;;;;;;;26.23;16.93;;;7.30;99.90;;;;;;4994562;28;20638;-69
2023/03/20 05:31:56;;;;;;;28.70;17.47;;;7.30;99.90;;;;;;4992675;28;20658;-69
2023/03/20 05:34:21;;;;;;;29.67;17.20;;;7.30;99.90;;;;;;4992519;28;20558;-69
2023/03/20 05:36:47;;;;;;;29.83;16.60;;;7.30;99.90;;;;;;4993732;28;20677;-68
2023/03/20 05:39:13;;;;;;;28.23;17.37;;;7.40;99.90;;;;;;4994075;28;20211;-69
2023/03/20 05:41:39;;;;;;;28.53;15.80;;;7.40;99.90;;;;;;4992473;28;20177;-67
2023/03/20 05:44:06;;;;;;;28.97;17.07;;;7.40;99.90;;;;;;4995152;28;20486;-75
2023/03/20 05:46:35;;;;;;;28.87;16.87;;;7.40;99.90;;;;;;4992640;28;20200;-70
2023/03/20 05:49:00;;;;;;;27.77;17.10;;;7.40;99.90;;;;;;4992623;28;20244;-70
2023/03/20 05:51:26;;;;;;;26.13;15.80;;;7.40;99.90;;;;;;4992660;28;20524;-69
2023/03/20 05:53:52;;;;;;;27.50;17.27;;;7.40;99.90;;;;;;4994941;28;20223;-70
2023/03/20 05:56:18;;;;;;;27.80;17.27;;;7.40;99.90;;;;;;4997690;28;20236;-69
2023/03/20 05:58:44;;;;;;;24.43;15.63;;;7.40;99.90;;;;;;4997562;28;20196;-69
2023/03/20 06:01:10;;;;;;;27.83;16.67;;;7.40;99.90;;;;;;4997933;28;20161;-69
2023/03/20 06:03:35;;;;;;;28.17;16.60;;;7.40;99.90;;;;;;4997480;28;20218;-70
2023/03/20 06:06:02;;;;;;;28.27;16.73;;;7.40;99.90;;;;;;4997945;28;20203;-69
2023/03/20 06:08:29;;;;;;;27.37;17.60;;;7.40;99.90;;;;;;4997526;28;20183;-69
2023/03/20 06:10:55;;;;;;;30.93;16.97;;;7.40;99.90;;;;;;4998107;28;20539;-69
2023/03/20 06:13:21;;;;;;;27.00;15.77;;;7.40;99.90;;;;;;4997283;28;20156;-69
2023/03/20 06:15:47;;;;;;;30.43;16.87;;;7.40;99.90;;;;;;4997732;28;20700;-69
2023/03/20 06:18:12;;;;;;;34.87;16.47;;;7.30;99.90;;;;;;4995989;28;20653;-69
2023/03/20 06:20:38;;;;;;;32.30;17.90;;;7.30;99.90;;;;;;4997614;28;20290;-69
2023/03/20 06:23:04;;;;;;;28.43;18.43;;;7.30;99.90;;;;;;4997116;28;20188;-69
2023/03/20 06:25:30;;;;;;;29.30;17.07;;;7.30;99.90;;;;;;4995960;28;20227;-70
2023/03/20 06:27:56;;;;;;;32.53;16.90;;;7.30;99.90;;;;;;4996791;28;20275;-68
2023/03/20 06:30:22;;;;;;;26.20;16.23;;;7.30;99.90;;;;;;4997277;28;20569;-68
2023/03/20 06:32:48;;;;;;;29.60;18.30;;;7.40;99.90;;;;;;4997422;28;20177;-66
2023/03/20 06:35:14;;;;;;;30.37;17.00;;;7.40;99.90;;;;;;4997445;28;20668;-66
2023/03/20 06:37:40;;;;;;;29.80;17.83;;;7.40;99.90;;;;;;4996815;28;20200;-66
2023/03/20 06:40:06;;;;;;;34.87;17.30;;;7.40;99.90;;;;;;4997423;28;20414;-66
2023/03/20 06:42:32;;;;;;;26.10;16.20;;;7.40;99.90;;;;;;4996897;28;20180;-66
2023/03/20 06:44:58;;;;;;;32.07;17.47;;;7.40;99.90;;;;;;4995514;28;20272;-66
2023/03/20 06:47:24;;;;;;;35.03;18.17;;;7.50;99.90;;;;;;4996736;28;20728;-67
2023/03/20 06:49:49;;;;;;;29.60;17.93;;;7.50;99.90;;;;;;4995427;28;20186;-68
2023/03/20 06:52:18;;;;;;;29.63;17.10;;;7.50;99.90;;;;;;4995354;28;20188;-68
2023/03/20 06:54:44;;;;;;;28.63;18.50;;;7.60;99.90;;;;;;4996619;28;20187;-67
2023/03/20 06:57:10;;;;;;;31.30;19.17;;;7.60;99.90;;;;;;4996634;28;20271;-67
2023/03/20 06:59:36;;;;;;;29.23;18.03;;;7.60;99.90;;;;;;4996543;28;20674;-67
2023/03/20 07:02:03;;;;;;;28.57;18.40;;;7.60;99.90;;;;;;4995204;28;20264;-67
2023/03/20 07:04:28;;;;;;;28.37;18.27;;;7.60;99.90;;;;;;4996351;28;20196;-67
2023/03/20 07:06:54;;;;;;;29.90;19.03;;;7.60;99.90;;;;;;4994147;28;20204;-67
2023/03/20 07:09:21;;;;;;;27.50;18.07;;;7.60;99.90;;;;;;4994965;28;20701;-67
2023/03/20 07:11:47;;;;;;;34.87;19.40;;;7.60;99.90;;;;;;4995012;28;20555;-67
2023/03/20 07:14:13;;;;;;;32.70;18.93;;;7.60;99.90;;;;;;4995081;28;20183;-67
2023/03/20 07:16:39;;;;;;;27.00;17.93;;;7.60;99.90;;;;;;4996477;28;20188;-67
2023/03/20 07:19:05;;;;;;;29.10;17.93;;;7.60;99.90;;;;;;4994889;28;20350;-67
2023/03/20 07:21:31;;;;;;;28.20;17.30;;;7.60;99.90;;;;;;4996638;28;20509;-67
2023/03/20 07:23:57;;;;;;;33.70;19.17;;;7.60;99.90;;;;;;4994936;28;20266;-67
2023/03/20 07:26:23;;;;;;;29.53;18.67;;;7.60;99.90;;;;;;4994757;28;20643;-67
2023/03/20 07:28:49;;;;;;;28.60;16.90;;;7.70;99.90;;;;;;4994679;28;20184;-68
2023/03/20 07:31:21;;;;;;;28.47;17.53;;;7.70;99.90;;;;;;4996327;28;20173;-67
2023/03/20 07:33:46;;;;;;;27.17;17.37;;;7.70;99.90;;;;;;4994677;28;20181;-67
2023/03/20 07:36:12;;;;;;;29.97;16.93;;;7.80;99.90;;;;;;4995906;28;20200;-67
2023/03/20 07:38:38;;;;;;;26.80;16.27;;;7.80;99.90;;;;;;4995878;28;20172;-67
2023/03/20 07:41:04;;;;;;;28.70;16.93;;;7.80;99.90;;;;;;4996260;28;20169;-67
2023/03/20 07:43:30;;;;;;;24.87;15.10;;;7.90;99.90;;;;;;4995886;28;20638;-67
2023/03/20 07:45:56;;;;;;;27.60;15.77;;;7.90;99.90;;;;;;4995587;28;20194;-67
2023/03/20 07:48:21;;;;;;;24.87;15.03;;;8.00;99.90;;;;;;4995608;28;20260;-67
2023/03/20 07:50:47;;;;;;;23.43;15.13;;;7.90;99.90;;;;;;4994457;28;20181;-67
2023/03/20 07:53:13;;;;;;;22.73;14.33;;;8.00;99.90;;;;;;4995681;28;20191;-67
2023/03/20 07:55:39;;;;;;;22.93;14.03;;;8.10;99.90;;;;;;4995645;28;20180;-67
2023/03/20 07:58:05;;;;;;;22.00;13.67;;;8.10;99.90;;;;;;4995693;28;20176;-67
2023/03/20 08:00:31;;;;;;;17.70;12.27;;;8.20;99.90;;;;;;4994414;28;20682;-68
2023/03/20 08:02:57;;;;;;;19.57;12.00;;;8.20;99.90;;;;;;4996076;28;20224;-68
2023/03/20 08:05:23;;;;;;;18.73;13.90;;;8.20;99.90;;;;;;4995608;28;20544;-68
2023/03/20 08:07:49;;;;;;;21.10;13.63;;;8.20;99.90;;;;;;4995369;28;20243;-67
2023/03/20 08:10:15;;;;;;;21.93;13.27;;;8.20;99.90;;;;;;4994027;28;20184;-67
2023/03/20 08:12:42;;;;;;;19.97;12.40;;;8.20;99.90;;;;;;4995222;28;20543;-67
2023/03/20 08:15:08;;;;;;;21.17;11.83;;;8.30;99.90;;;;;;4993896;28;20261;-68
2023/03/20 08:17:34;;;;;;;17.57;12.33;;;8.30;99.90;;;;;;4994917;28;20212;-67
2023/03/20 08:19:59;;;;;;;17.30;12.17;;;8.40;99.90;;;;;;4993702;28;20217;-67
2023/03/20 08:22:25;;;;;;;18.27;11.73;;;8.50;99.90;;;;;;4995396;28;20263;-67
2023/03/20 08:24:51;;;;;;;21.27;12.00;;;8.60;99.90;;;;;;4994007;28;20283;-67
2023/03/20 08:27:17;;;;;;;22.70;12.37;;;8.70;99.90;;;;;;4995611;28;20271;-67
2023/03/20 08:29:42;;;;;;;15.77;10.10;;;8.60;99.90;;;;;;4994553;28;20659;-67
2023/03/20 08:32:08;;;;;;;20.63;11.27;;;8.70;99.90;;;;;;4996390;28;20212;-68
2023/03/20 08:34:34;;;;;;;16.40;11.57;;;8.80;99.90;;;;;;4995799;28;20192;-67
2023/03/20 08:37:03;;;;;;;15.00;10.20;;;8.80;99.90;;;;;;4995294;28;20204;-67
2023/03/20 08:39:29;;;;;;;15.23;9.70;;;8.80;99.90;;;;;;4994842;28;20227;-67
2023/03/20 08:41:54;;;;;;;16.67;9.70;;;8.80;99.90;;;;;;4994940;28;20173;-67
2023/03/20 08:44:20;;;;;;;16.33;10.13;;;8.70;99.90;;;;;;4994496;28;20310;-67
2023/03/20 08:46:46;;;;;;;12.43;8.53;;;8.70;99.90;;;;;;4993627;28;20258;-68
2023/03/20 08:49:12;;;;;;;17.07;8.97;;;8.70;99.90;;;;;;4994677;28;20184;-67
2023/03/20 08:51:37;;;;;;;13.37;8.50;;;8.70;99.90;;;;;;4994548;28;20184;-67
2023/03/20 08:54:03;;;;;;;11.93;8.00;;;8.80;99.90;;;;;;4994562;28;20637;-67
2023/03/20 08:56:29;;;;;;;17.43;9.20;;;8.80;99.90;;;;;;4994734;28;20254;-67
2023/03/20 08:58:55;;;;;;;10.43;8.70;;;8.90;99.90;;;;;;4994419;28;20234;-67
2023/03/20 09:01:21;;;;;;;10.40;8.13;;;8.70;99.90;;;;;;4994853;28;20181;-68
2023/03/20 09:03:47;;;;;;;14.73;8.93;;;8.70;99.90;;;;;;4993245;28;20669;-67
2023/03/20 09:06:12;;;;;;;12.23;9.00;;;8.70;99.90;;;;;;4994705;28;20196;-67
2023/03/20 09:08:38;;;;;;;12.37;8.93;;;8.70;99.90;;;;;;4993390;28;20176;-67
2023/03/20 09:11:06;;;;;;;11.60;8.93;;;8.70;99.90;;;;;;4994636;28;20188;-68
2023/03/20 09:13:32;;;;;;;17.00;10.57;;;8.80;99.90;;;;;;4994182;28;20187;-67
2023/03/20 09:15:58;;;;;;;16.07;10.23;;;8.90;99.90;;;;;;4994330;28;20196;-67
2023/03/20 09:18:24;;;;;;;16.93;9.93;;;8.90;99.90;;;;;;4994206;28;20266;-67
2023/03/20 09:20:50;;;;;;;17.03;10.50;;;8.80;99.90;;;;;;4994126;28;20220;-67
2023/03/20 09:23:17;;;;;;;16.37;10.87;;;8.80;99.90;;;;;;4994199;28;20236;-67
2023/03/20 09:25:42;;;;;;;18.50;10.37;;;8.80;99.90;;;;;;4992914;28;20185;-67
2023/03/20 09:28:08;;;;;;;15.67;10.23;;;9.00;99.90;;;;;;4995104;28;20261;-68
2023/03/20 09:30:34;;;;;;;21.20;10.40;;;9.00;99.90;;;;;;5000621;28;20204;-67
2023/03/20 09:33:00;;;;;;;14.10;10.13;;;9.10;99.90;;;;;;5000966;28;20176;-67
2023/03/20 09:35:27;;;;;;;17.23;10.10;;;9.10;99.90;;;;;;4999277;28;20215;-67
2023/03/20 09:37:53;;;;;;;17.00;11.13;;;9.00;99.90;;;;;;5000439;28;20695;-67
2023/03/20 09:40:28;;;;;;;16.53;10.47;;;8.90;99.90;;;;;;5000629;28;20200;-67
2023/03/20 09:43:21;;;;;;;17.90;11.43;;;9.00;99.90;;;;;;4999401;28;20171;-67
2023/03/20 09:46:03;;;;;;;14.67;10.70;;;8.90;99.90;;;;;;5000385;28;20529;-66
2023/03/20 09:48:46;;;;;;;16.80;10.80;;;8.90;99.90;;;;;;5000568;28;20161;-66
2023/03/20 09:51:28;;;;;;;22.03;11.07;;;8.80;99.90;;;;;;5000963;28;20168;-67
2023/03/20 09:54:29;;;;;;;20.47;10.57;;;8.80;99.90;;;;;;4999157;28;20243;-67
2023/03/20 09:56:56;;;;;;;21.23;10.90;;;8.80;99.90;;;;;;4956774;28;20559;-68
2023/03/20 09:59:24;;;;;;;18.17;11.10;;;8.90;99.90;;;;;;4999019;28;20685;-67
2023/03/20 10:02:03;;;;;;;18.83;11.10;;;8.90;99.90;;;;;;4999087;28;20271;-67
2023/03/20 10:04:29;;;;;;;14.97;9.97;;;8.90;99.90;;;;;;5000310;28;20629;-66
2023/03/20 10:06:55;;;;;;;21.97;12.03;;;9.00;99.90;;;;;;4998933;28;20200;-67
2023/03/20 10:09:30;;;;;;;16.37;11.40;;;9.00;99.90;;;;;;5000289;28;20180;-67
2023/03/20 10:12:25;;;;;;;17.33;11.20;;;8.80;99.90;;;;;;5000604;28;20222;-67
2023/03/20 10:15:04;;;;;;;17.90;10.60;;;8.90;99.90;;;;;;5000240;28;20173;-67
2023/03/20 10:17:51;;;;;;;13.83;10.23;;;9.00;99.90;;;;;;5000098;28;20222;-67
2023/03/20 10:20:28;;;;;;;14.67;10.30;;;9.00;99.90;;;;;;4998824;28;20239;-67
2023/03/20 10:23:06;;;;;;;14.60;8.83;;;9.00;99.90;;;;;;4998885;28;20188;-67
2023/03/20 10:25:41;;;;;;;15.07;8.83;;;9.00;99.90;;;;;;4998978;28;20257;-67
2023/03/20 10:28:33;;;;;;;15.90;8.87;;;9.00;99.90;;;;;;5000129;28;20160;-67
2023/03/20 10:31:00;;;;;;;16.97;9.07;;;9.00;99.90;;;;;;4990980;28;20185;-67
2023/03/20 10:33:47;;;;;;;14.20;8.63;;;9.10;99.90;;;;;;5000197;28;20168;-67
2023/03/20 10:36:13;;;;;;;17.90;8.33;;;9.10;99.90;;;;;;5000260;28;20634;-66
2023/03/20 10:38:56;;;;;;;15.60;7.83;;;9.00;99.90;;;;;;5000030;28;20173;-67
2023/03/20 10:41:35;;;;;;;16.67;8.10;;;9.00;99.90;;;;;;4997365;28;20649;-66
2023/03/20 10:44:01;;;;;;;12.27;7.77;;;9.10;99.90;;;;;;4997354;28;20621;-67
2023/03/20 10:46:30;;;;;;;12.00;7.63;;;9.10;99.90;;;;;;4997397;28;20208;-67
2023/03/20 10:49:14;;;;;;;10.37;6.90;;;9.10;99.90;;;;;;4997410;28;20185;-68
2023/03/20 10:51:43;;;;;;;12.53;7.33;;;9.20;99.90;;;;;;4997517;28;20188;-68
2023/03/20 10:54:23;;;;;;;12.10;6.83;;;9.20;99.90;;;;;;4996961;28;20181;-67
2023/03/20 10:56:54;;;;;;;11.10;6.63;;;9.20;99.90;;;;;;4996141;28;20554;-67
2023/03/20 10:59:42;;;;;;;8.57;6.60;;;9.20;99.90;;;;;;4996571;28;20657;-68
2023/03/20 11:02:13;;;;;;;8.33;6.40;;;9.20;99.90;;;;;;4996810;28;20267;-68
2023/03/20 11:04:39;;;;;;;8.73;5.80;;;9.40;99.90;;;;;;4996754;28;20541;-67
2023/03/20 11:07:24;;;;;;;11.37;6.83;;;9.40;99.90;;;;;;4996439;28;20192;-67
2023/03/20 11:10:05;;;;;;;11.40;7.20;;;9.40;99.90;;;;;;4995500;28;20546;-67
2023/03/20 11:12:35;;;;;;;14.37;6.83;;;9.40;99.90;;;;;;4995018;28;20192;-67
2023/03/20 11:15:30;;;;;;;15.87;7.00;;;9.50;99.90;;;;;;4996764;28;20271;-66
2023/03/20 11:17:58;;;;;;;9.87;7.20;;;9.40;99.90;;;;;;4995024;28;20712;-67
2023/03/20 11:20:42;;;;;;;13.07;7.80;;;9.30;99.90;;;;;;4996307;28;20208;-67
2023/03/20 11:23:15;;;;;;;13.47;7.10;;;9.30;99.90;;;;;;4995073;28;20185;-67
2023/03/20 11:26:06;;;;;;;12.33;7.43;;;9.30;99.90;;;;;;4996656;28;20161;-66
2023/03/20 11:28:53;;;;;;;13.17;8.03;;;9.20;99.90;;;;;;4996415;28;20255;-67
2023/03/20 11:31:39;;;;;;;12.70;7.50;;;9.20;99.90;;;;;;4996269;28;20168;-66
2023/03/20 11:34:14;;;;;;;10.60;7.93;;;9.10;99.90;;;;;;4995107;28;20632;-66
2023/03/20 11:36:57;;;;;;;11.27;6.83;;;9.20;99.90;;;;;;4996230;28;20207;-68
2023/03/20 11:39:31;;;;;;;10.70;6.90;;;9.20;99.90;;;;;;4994683;28;20582;-68
2023/03/20 11:42:01;;;;;;;11.83;7.20;;;9.30;99.90;;;;;;4994627;28;20641;-68
2023/03/20 11:44:29;;;;;;;9.77;6.23;;;9.40;99.90;;;;;;4995960;28;20204;-69
2023/03/20 11:47:09;;;;;;;10.00;6.57;;;9.40;99.90;;;;;;4995510;28;20205;-69
2023/03/20 11:49:48;;;;;;;7.53;5.90;;;9.60;99.90;;;;;;4994615;28;20203;-69
2023/03/20 11:52:19;;;;;;;10.17;6.40;;;9.70;99.90;;;;;;4993879;28;20203;-68
2023/03/20 11:54:52;;;;;;;8.47;6.60;;;9.70;99.90;;;;;;4994564;28;20251;-68
2023/03/20 11:57:36;;;;;;;10.07;6.50;;;9.70;99.90;;;;;;4995365;28;20200;-69
2023/03/20 12:00:41;;;;;;;12.23;6.77;;;9.70;99.90;;;;;;4994173;28;20204;-69
2023/03/20 12:03:36;;;;;;;9.23;6.37;;;9.90;99.90;;;;;;4991263;28;20192;-69
2023/03/20 12:06:06;;;;;;;9.10;6.73;;;9.70;99.90;;;;;;4972991;28;20262;-69
2023/03/20 12:08:36;;;;;;;7.80;6.10;;;9.60;99.90;;;;;;4995351;28;20185;-69
2023/03/20 12:11:36;;;;;;;9.97;6.13;;;9.70;99.90;;;;;;4994145;28;20176;-69
2023/03/20 12:14:04;;;;;;;12.50;6.33;;;9.70;99.90;;;;;;4995440;28;20161;-69
2023/03/20 12:16:31;;;;;;;9.93;5.80;;;9.80;99.90;;;;;;4994185;28;20208;-69
2023/03/20 12:19:05;;;;;;;12.83;6.23;;;9.90;99.90;;;;;;4995174;28;22155;-69
2023/03/20 12:21:55;;;;;;;9.13;5.33;;;9.90;99.90;;;;;;4995381;28;20160;-69
2023/03/20 12:24:35;;;;;;;7.17;4.93;;;10.00;99.90;;;;;;4995040;28;20247;-69
2023/03/20 12:27:31;;;;;;;9.87;5.63;;;10.00;99.90;;;;;;4995238;28;20295;-69
2023/03/20 12:30:12;;;;;;;7.07;4.97;;;10.00;99.90;;;;;;4993787;28;20184;-69
2023/03/20 12:32:50;;;;;;;8.00;5.37;;;10.00;99.90;;;;;;4995024;28;20199;-69
2023/03/20 12:35:25;;;;;;;8.17;5.33;;;9.90;99.90;;;;;;4994926;28;20200;-69
2023/03/20 12:37:51;;;;;;;9.03;4.97;;;9.90;99.90;;;;;;4995058;28;20254;-69
2023/03/20 12:40:19;;;;;;;7.30;4.83;;;9.90;99.90;;;;;;4993528;28;20222;-69
2023/03/20 12:42:51;;;;;;;6.57;5.77;;;9.90;99.90;;;;;;4994914;28;20173;-69
2023/03/20 12:45:32;;;;;;;7.43;5.37;;;9.90;99.90;;;;;;4993469;28;20173;-69
2023/03/20 12:48:28;;;;;;;9.73;5.33;;;9.80;99.90;;;;;;4993396;28;20212;-69
2023/03/20 12:51:02;;;;;;;11.97;5.77;;;9.90;99.90;;;;;;4994771;28;20165;-69
2023/03/20 12:53:49;;;;;;;11.07;5.90;;;9.80;99.90;;;;;;4993391;28;20218;-69
2023/03/20 12:56:27;;;;;;;12.60;6.03;;;9.80;99.90;;;;;;4994637;28;20673;-69
2023/03/20 12:59:17;;;;;;;9.63;6.40;;;9.70;99.90;;;;;;4994382;28;20180;-69
2023/03/20 13:02:22;;;;;;;9.07;5.63;;;9.60;99.90;;;;;;4993286;28;20172;-69
2023/03/20 13:05:19;;;;;;;9.20;6.03;;;9.40;99.90;;;;;;4994452;28;20169;-69